createdAt,value
2018-04-23T00:00:15.285Z,15.30
2018-04-23T00:02:45.133Z,15.40
2018-04-23T00:05:14.616Z,15.40
2018-04-23T00:07:44.078Z,15.60
2018-04-23T00:10:13.534Z,16.10
2018-04-23T00:12:43.007Z,16.70
2018-04-23T00:15:13.382Z,17.00
2018-04-23T00:17:42.849Z,17.10
2018-04-23T00:20:12.697Z,17.00
2018-04-23T00:22:42.153Z,17.00
2018-04-23T00:25:11.326Z,16.90
2018-04-23T00:27:40.821Z,16.80
2018-04-23T00:30:10.264Z,16.70
2018-04-23T00:32:39.770Z,16.70
2018-04-23T00:35:09.692Z,16.60
2018-04-23T00:37:39.164Z,16.70
2018-04-23T00:40:08.317Z,16.70
2018-04-23T00:42:37.808Z,16.80
2018-04-23T00:45:07.246Z,16.80
2018-04-23T00:47:36.731Z,16.90
2018-04-23T00:50:06.181Z,16.90
2018-04-23T00:52:35.633Z,16.90
2018-04-23T00:55:05.502Z,16.90
2018-04-23T00:57:34.997Z,16.90
2018-04-23T01:00:03.774Z,16.80
2018-04-23T01:02:32.641Z,16.60
2018-04-23T01:05:02.105Z,16.40
2018-04-23T01:07:31.585Z,16.30
2018-04-23T01:10:01.035Z,16.30
2018-04-23T01:12:30.494Z,16.10
2018-04-23T01:14:59.958Z,16.10
2018-04-23T01:17:29.437Z,16.10
2018-04-23T01:19:58.887Z,16.00
2018-04-23T01:22:28.357Z,16.00
2018-04-23T01:24:58.221Z,16.10
2018-04-23T01:27:27.720Z,16.10
2018-04-23T01:29:57.183Z,16.00
2018-04-23T01:32:26.671Z,15.90
2018-04-23T01:34:56.168Z,15.90
2018-04-23T01:37:26.011Z,15.80
2018-04-23T01:39:55.470Z,15.80
2018-04-23T01:42:24.949Z,15.80
2018-04-23T01:44:54.405Z,15.80
2018-04-23T01:47:23.865Z,15.80
2018-04-23T01:49:53.746Z,15.70
2018-04-23T01:52:23.220Z,15.70
2018-04-23T01:54:53.084Z,15.80
2018-04-23T01:57:22.597Z,15.70
2018-04-23T01:59:52.218Z,15.70
2018-04-23T02:02:21.713Z,15.70
2018-04-23T02:04:51.398Z,15.70
2018-04-23T02:07:20.877Z,15.80
2018-04-23T02:09:50.326Z,15.80
2018-04-23T02:12:19.777Z,15.60
2018-04-23T02:14:49.265Z,15.60
2018-04-23T02:17:18.721Z,15.70
2018-04-23T02:19:48.173Z,15.90
2018-04-23T02:22:17.659Z,16.00
2018-04-23T02:24:48.052Z,16.10
2018-04-23T02:27:17.547Z,16.10
2018-04-23T02:29:47.392Z,16.10
2018-04-23T02:32:16.889Z,16.10
2018-04-23T02:34:46.358Z,16.10
2018-04-23T02:37:15.558Z,16.10
2018-04-23T02:39:45.034Z,15.90
2018-04-23T02:42:14.501Z,15.90
2018-04-23T02:44:43.989Z,15.80
2018-04-23T02:47:13.850Z,15.80
2018-04-23T02:49:43.301Z,15.80
2018-04-23T02:52:12.765Z,15.80
2018-04-23T02:54:42.641Z,15.70
2018-04-23T02:57:12.126Z,15.70
2018-04-23T02:59:41.608Z,15.70
2018-04-23T03:02:11.045Z,15.70
2018-04-23T03:04:40.912Z,15.70
2018-04-23T03:07:10.397Z,15.70
2018-04-23T03:09:40.298Z,15.70
2018-04-23T03:12:09.749Z,15.70
2018-04-23T03:14:38.959Z,15.70
2018-04-23T03:17:08.412Z,15.70
2018-04-23T03:19:37.900Z,15.70
2018-04-23T03:22:07.765Z,15.70
2018-04-23T03:24:37.234Z,15.70
2018-04-23T03:27:06.707Z,15.70
2018-04-23T03:29:36.210Z,15.60
2018-04-23T03:32:05.712Z,15.70
2018-04-23T03:34:35.593Z,15.70
2018-04-23T03:37:05.111Z,15.70
2018-04-23T03:39:35.123Z,15.60
2018-04-23T03:42:04.573Z,15.70
2018-04-23T03:44:34.062Z,15.70
2018-04-23T03:47:03.523Z,15.70
2018-04-23T03:49:33.011Z,15.70
2018-04-23T03:52:02.484Z,15.70
2018-04-23T03:54:31.924Z,15.90
2018-04-23T03:57:01.381Z,16.00
2018-04-23T03:59:30.854Z,16.10
2018-04-23T04:02:00.037Z,16.10
2018-04-23T04:04:29.497Z,16.00
2018-04-23T04:06:58.972Z,16.10
2018-04-23T04:09:28.657Z,16.10
2018-04-23T04:11:57.490Z,16.10
2018-04-23T04:14:37.926Z,16.10
2018-04-23T04:17:06.910Z,16.10
2018-04-23T04:19:36.114Z,16.20
2018-04-23T04:22:05.594Z,16.30
2018-04-23T04:24:35.045Z,16.30
2018-04-23T04:27:04.521Z,16.20
2018-04-23T04:29:33.978Z,16.10
2018-04-23T04:32:03.563Z,15.90
2018-04-23T04:34:33.049Z,15.70
2018-04-23T04:37:02.579Z,15.70
2018-04-23T04:39:33.647Z,15.90
2018-04-23T04:42:03.137Z,15.90
2018-04-23T04:44:32.588Z,15.90
2018-04-23T04:47:02.064Z,15.90
2018-04-23T04:49:31.319Z,16.10
2018-04-23T04:52:02.081Z,16.10
2018-04-23T04:54:31.576Z,16.10
2018-04-23T04:57:01.468Z,15.80
2018-04-23T04:59:30.962Z,15.80
2018-04-23T05:02:00.431Z,15.80
2018-04-23T05:04:29.881Z,15.90
2018-04-23T05:06:59.377Z,16.00
2018-04-23T05:09:28.865Z,16.00
2018-04-23T05:11:58.319Z,16.00
2018-04-23T05:14:27.790Z,16.00
2018-04-23T05:16:57.264Z,16.00
2018-04-23T05:19:26.484Z,16.00
2018-04-23T05:21:56.345Z,16.00
2018-04-23T05:24:25.829Z,16.00
2018-04-23T05:26:55.267Z,16.00
2018-04-23T05:29:24.828Z,16.10
2018-04-23T05:31:55.208Z,15.90
2018-04-23T05:34:25.086Z,15.80
2018-04-23T05:36:54.542Z,15.80
2018-04-23T05:39:24.028Z,15.80
2018-04-23T05:41:53.511Z,15.80
2018-04-23T05:44:23.360Z,15.80
2018-04-23T05:46:52.798Z,15.80
2018-04-23T05:49:22.319Z,15.90
2018-04-23T05:51:51.762Z,16.00
2018-04-23T05:54:21.233Z,16.20
2018-04-23T05:56:50.690Z,16.20
2018-04-23T05:59:20.141Z,16.30
2018-04-23T06:01:49.855Z,16.20
2018-04-23T06:04:19.319Z,16.30
2018-04-23T06:06:49.384Z,16.50
2018-04-23T06:09:18.936Z,16.50
2018-04-23T06:11:48.373Z,16.60
2018-04-23T06:14:18.288Z,16.80
2018-04-23T06:16:47.936Z,16.80
2018-04-23T06:19:17.777Z,16.80
2018-04-23T06:21:47.255Z,16.80
2018-04-23T06:24:16.831Z,16.80
2018-04-23T06:26:46.282Z,16.90
2018-04-23T06:29:15.747Z,16.90
2018-04-23T06:31:45.610Z,16.90
2018-04-23T06:34:15.416Z,16.80
2018-04-23T06:36:45.040Z,16.70
2018-04-23T06:39:14.473Z,16.80
2018-04-23T06:41:43.919Z,16.90
2018-04-23T06:44:13.522Z,17.00
2018-04-23T06:46:43.003Z,17.10
2018-04-23T06:49:12.469Z,17.20
2018-04-23T06:51:41.957Z,17.10
2018-04-23T06:54:11.508Z,17.10
2018-04-23T06:56:40.741Z,17.00
2018-04-23T06:59:09.997Z,16.90
2018-04-23T07:01:39.832Z,16.90
2018-04-23T07:04:09.682Z,17.00
2018-04-23T07:06:39.122Z,17.00
2018-04-23T07:09:08.618Z,16.90
2018-04-23T07:11:38.122Z,16.80
2018-04-23T07:14:07.980Z,16.70
2018-04-23T07:16:37.561Z,16.70
2018-04-23T07:19:07.154Z,16.70
2018-04-23T07:21:36.610Z,16.80
2018-04-23T07:24:06.489Z,16.70
2018-04-23T07:26:35.940Z,16.70
2018-04-23T07:29:06.349Z,16.70
2018-04-23T07:31:35.817Z,16.70
2018-04-23T07:34:05.676Z,16.80
2018-04-23T07:36:35.124Z,16.70
2018-04-23T07:39:03.705Z,16.80
2018-04-23T07:41:33.153Z,16.90
2018-04-23T07:44:02.606Z,16.80
2018-04-23T07:46:32.464Z,16.90
2018-04-23T07:49:01.905Z,16.90
2018-04-23T07:51:31.389Z,17.10
2018-04-23T07:54:01.047Z,17.20
2018-04-23T07:56:30.532Z,17.30
2018-04-23T07:59:00.377Z,17.10
2018-04-23T08:01:29.866Z,17.20
2018-04-23T08:03:59.045Z,17.00
2018-04-23T08:06:28.529Z,17.10
2018-04-23T08:08:59.266Z,17.50
2018-04-23T08:11:28.745Z,17.60
2018-04-23T08:13:58.260Z,17.60
2018-04-23T08:16:27.699Z,17.50
2018-04-23T08:18:57.163Z,17.60
2018-04-23T08:21:26.641Z,17.50
2018-04-23T08:23:55.806Z,17.50
2018-04-23T08:26:25.282Z,17.50
2018-04-23T08:28:55.021Z,17.50
2018-04-23T08:31:24.881Z,17.60
2018-04-23T08:33:55.353Z,17.60
2018-04-23T08:36:24.833Z,17.70
2018-04-23T08:38:54.298Z,17.80
2018-04-23T08:41:23.749Z,17.70
2018-04-23T08:43:53.679Z,17.80
2018-04-23T08:46:23.301Z,17.80
2018-04-23T08:48:53.197Z,17.80
2018-04-23T08:51:22.827Z,17.80
2018-04-23T08:53:52.297Z,17.90
2018-04-23T08:56:21.774Z,18.00
2018-04-23T08:58:51.242Z,18.30
2018-04-23T09:01:20.721Z,18.10
2018-04-23T09:03:50.174Z,18.10
2018-04-23T09:06:19.641Z,18.10
2018-04-23T09:08:49.125Z,18.20
2018-04-23T09:11:18.611Z,18.30
2018-04-23T09:13:48.070Z,18.30
2018-04-23T09:16:17.532Z,18.00
2018-04-23T09:18:46.364Z,18.10
2018-04-23T09:21:16.210Z,18.30
2018-04-23T09:23:45.688Z,18.30
2018-04-23T09:26:15.138Z,18.50
2018-04-23T09:28:44.988Z,18.60
2018-04-23T09:31:14.463Z,18.60
2018-04-23T09:33:43.941Z,18.90
2018-04-23T09:36:13.400Z,18.80
2018-04-23T09:38:42.841Z,18.90
2018-04-23T09:41:12.696Z,19.10
2018-04-23T09:43:42.146Z,19.10
2018-04-23T09:46:11.608Z,18.90
2018-04-23T09:48:41.468Z,18.90
2018-04-23T09:51:10.975Z,18.90
2018-04-23T09:53:40.849Z,19.30
2018-04-23T09:56:10.365Z,19.30
2018-04-23T09:58:39.598Z,19.10
2018-04-23T10:01:14.745Z,19.00
2018-04-23T10:03:43.977Z,18.90
2018-04-23T10:06:14.346Z,18.70
2018-04-23T10:08:43.830Z,18.80
2018-04-23T10:11:13.312Z,19.20
2018-04-23T10:13:42.765Z,19.30
2018-04-23T10:16:12.250Z,19.40
2018-04-23T10:18:41.442Z,19.40
2018-04-23T10:21:10.927Z,19.50
2018-04-23T10:23:40.151Z,19.50
2018-04-23T10:26:09.285Z,19.50
2018-04-23T10:28:39.136Z,19.60
2018-04-23T10:31:08.381Z,19.60
2018-04-23T10:33:37.868Z,19.70
2018-04-23T10:36:07.326Z,19.90
2018-04-23T10:38:36.815Z,20.20
2018-04-23T10:41:06.257Z,20.40
2018-04-23T10:43:35.753Z,20.50
2018-04-23T10:46:05.209Z,20.80
2018-04-23T10:48:34.661Z,20.70
2018-04-23T10:51:04.184Z,20.40
2018-04-23T10:53:34.299Z,20.50
2018-04-23T10:56:05.722Z,20.50
2018-04-23T10:58:35.200Z,20.60
2018-04-23T11:01:05.088Z,20.70
2018-04-23T11:03:34.547Z,20.80
2018-04-23T11:06:03.729Z,20.70
2018-04-23T11:08:33.252Z,20.70
2018-04-23T11:11:02.717Z,21.00
2018-04-23T11:13:32.606Z,21.70
2018-04-23T11:16:02.076Z,21.70
2018-04-23T11:18:31.564Z,21.50
2018-04-23T11:21:01.236Z,21.30
2018-04-23T11:23:30.704Z,21.10
2018-04-23T11:26:00.117Z,20.90
2018-04-23T11:28:29.588Z,20.80
2018-04-23T11:30:59.049Z,20.80
2018-04-23T11:33:28.509Z,21.30
2018-04-23T11:35:58.365Z,21.80
2018-04-23T11:38:27.822Z,21.80
2018-04-23T11:40:57.260Z,22.00
2018-04-23T11:43:26.699Z,21.80
2018-04-23T11:45:56.549Z,21.60
2018-04-23T11:48:26.030Z,21.60
2018-04-23T11:50:55.522Z,21.20
2018-04-23T11:53:25.166Z,20.80
2018-04-23T11:55:54.623Z,20.60
2018-04-23T11:58:24.084Z,20.90
2018-04-23T12:00:53.268Z,21.10
2018-04-23T12:03:22.765Z,20.90
2018-04-23T12:05:52.617Z,21.20
2018-04-23T12:08:22.080Z,21.20
2018-04-23T12:10:51.390Z,21.30
2018-04-23T12:13:21.410Z,20.70
2018-04-23T12:15:50.854Z,20.70
2018-04-23T12:18:20.300Z,20.80
2018-04-23T12:20:50.153Z,20.90
2018-04-23T12:23:19.582Z,20.90
2018-04-23T12:25:49.109Z,21.20
2018-04-23T12:28:18.558Z,21.60
2018-04-23T12:30:48.031Z,21.90
2018-04-23T12:33:17.479Z,21.60
2018-04-23T12:35:46.959Z,21.50
2018-04-23T12:38:16.827Z,21.20
2018-04-23T12:40:46.301Z,21.20
2018-04-23T12:43:15.774Z,21.50
2018-04-23T12:45:45.265Z,21.50
2018-04-23T12:48:14.725Z,21.70
2018-04-23T12:50:44.178Z,21.80
2018-04-23T12:53:13.622Z,22.30
2018-04-23T12:55:43.095Z,22.90
2018-04-23T12:58:12.537Z,23.10
2018-04-23T13:00:42.382Z,22.90
2018-04-23T13:03:12.226Z,22.80
2018-04-23T13:05:41.699Z,22.80
2018-04-23T13:08:11.163Z,22.60
2018-04-23T13:10:41.345Z,22.50
2018-04-23T13:13:10.785Z,22.30
2018-04-23T13:15:40.274Z,22.30
2018-04-23T13:18:09.707Z,21.50
2018-04-23T13:20:39.201Z,21.10
2018-04-23T13:23:08.414Z,21.10
2018-04-23T13:25:38.881Z,21.30
2018-04-23T13:28:08.324Z,21.80
2018-04-23T13:30:37.777Z,22.50
2018-04-23T13:33:07.262Z,22.70
2018-04-23T13:35:36.718Z,22.50
2018-04-23T13:38:06.153Z,22.50
2018-04-23T13:40:35.613Z,22.60
2018-04-23T13:43:05.065Z,22.30
2018-04-23T13:45:34.933Z,21.90
2018-04-23T13:48:04.385Z,21.90
2018-04-23T13:50:33.842Z,21.80
2018-04-23T13:53:03.309Z,22.40
2018-04-23T13:55:32.512Z,22.60
2018-04-23T13:58:02.177Z,22.60
2018-04-23T14:00:32.049Z,22.90
2018-04-23T14:03:01.531Z,22.90
2018-04-23T14:05:31.398Z,23.60
2018-04-23T14:08:00.854Z,23.60
2018-04-23T14:10:30.332Z,23.90
2018-04-23T14:12:59.797Z,23.90
2018-04-23T14:15:29.255Z,23.60
2018-04-23T14:17:58.697Z,23.60
2018-04-23T14:20:28.155Z,23.70
2018-04-23T14:22:58.565Z,23.80
2018-04-23T14:25:28.037Z,23.60
2018-04-23T14:27:57.659Z,23.60
2018-04-23T14:30:27.126Z,23.80
2018-04-23T14:32:57.296Z,24.30
2018-04-23T14:35:26.522Z,24.30
2018-04-23T14:37:56.000Z,25.20
2018-04-23T14:40:25.458Z,25.40
2018-04-23T14:42:55.044Z,25.60
2018-04-23T14:45:24.529Z,25.80
2018-04-23T14:47:54.177Z,25.30
2018-04-23T14:50:23.623Z,25.40
2018-04-23T14:52:53.088Z,26.30
2018-04-23T14:55:22.253Z,27.30
2018-04-23T14:57:51.765Z,27.60
2018-04-23T15:00:21.313Z,27.50
2018-04-23T15:02:50.790Z,27.00
2018-04-23T15:05:20.254Z,25.50
2018-04-23T15:07:49.768Z,24.80
2018-04-23T15:10:20.032Z,24.90
2018-04-23T15:12:49.514Z,26.40
2018-04-23T15:15:18.966Z,26.50
2018-04-23T15:17:48.495Z,25.50
2018-04-23T15:20:20.683Z,25.50
2018-04-23T15:22:50.178Z,26.50
2018-04-23T15:25:19.647Z,26.40
2018-04-23T15:27:49.486Z,25.10
2018-04-23T15:30:18.961Z,25.00
2018-04-23T15:32:48.405Z,24.50
2018-04-23T15:35:18.286Z,24.90
2018-04-23T15:37:47.772Z,24.90
2018-04-23T15:40:17.214Z,25.20
2018-04-23T15:42:46.645Z,25.60
2018-04-23T15:45:15.862Z,25.10
2018-04-23T15:47:45.324Z,24.60
2018-04-23T15:50:15.189Z,24.30
2018-04-23T15:52:44.362Z,24.30
2018-04-23T15:55:14.245Z,24.30
2018-04-23T15:57:43.719Z,24.30
2018-04-23T16:00:13.175Z,24.80
2018-04-23T16:02:42.643Z,25.50
2018-04-23T16:05:12.089Z,25.70
2018-04-23T16:07:41.537Z,26.00
2018-04-23T16:10:11.002Z,27.10
2018-04-23T16:12:40.484Z,28.50
2018-04-23T16:15:09.943Z,29.40
2018-04-23T16:17:39.400Z,29.60
2018-04-23T16:20:08.846Z,29.60
2018-04-23T16:22:38.302Z,29.90
2018-04-23T16:25:07.759Z,30.00
2018-04-23T16:27:36.962Z,29.60
2018-04-23T16:30:06.468Z,29.80
2018-04-23T16:32:36.080Z,29.80
2018-04-23T16:35:05.676Z,29.30
2018-04-23T16:37:35.488Z,29.00
2018-04-23T16:40:05.373Z,29.10
2018-04-23T16:42:35.257Z,28.40
2018-04-23T16:45:04.113Z,28.50
2018-04-23T16:47:33.993Z,28.10
2018-04-23T16:50:04.521Z,28.10
2018-04-23T16:52:34.609Z,28.20
2018-04-23T16:55:04.471Z,28.40
2018-04-23T16:57:34.406Z,28.40
2018-04-23T17:00:03.529Z,28.40
2018-04-23T17:02:33.182Z,27.30
2018-04-23T17:05:02.789Z,25.90
2018-04-23T17:07:32.439Z,24.50
2018-04-23T17:10:01.902Z,23.20
2018-04-23T17:12:31.555Z,22.10
2018-04-23T17:15:01.005Z,22.20
2018-04-23T17:17:30.460Z,22.20
2018-04-23T17:20:00.325Z,22.20
2018-04-23T17:22:29.796Z,22.20
2018-04-23T17:24:59.439Z,22.70
2018-04-23T17:27:29.630Z,22.80
2018-04-23T17:29:59.062Z,22.70
2018-04-23T17:32:28.602Z,23.00
2018-04-23T17:34:59.416Z,22.70
2018-04-23T17:37:31.068Z,22.70
2018-04-23T17:40:00.231Z,22.30
2018-04-23T17:42:29.835Z,22.00
2018-04-23T17:44:59.438Z,21.50
2018-04-23T17:47:29.054Z,21.50
2018-04-23T17:49:58.219Z,21.30
2018-04-23T17:52:28.054Z,20.70
2018-04-23T17:54:57.248Z,20.70
2018-04-23T17:57:26.422Z,20.50
2018-04-23T17:59:56.594Z,20.30
2018-04-23T18:02:26.253Z,20.00
2018-04-23T18:04:55.424Z,19.80
2018-04-23T18:07:25.027Z,19.60
2018-04-23T18:09:54.501Z,19.40
2018-04-23T18:12:26.296Z,19.30
2018-04-23T18:14:55.439Z,19.10
2018-04-23T18:17:24.622Z,19.10
2018-04-23T18:19:53.811Z,19.10
2018-04-23T18:22:23.651Z,19.00
2018-04-23T18:24:52.861Z,19.10
2018-04-23T18:27:23.040Z,18.80
2018-04-23T18:29:52.801Z,18.70
2018-04-23T18:32:22.173Z,18.50
